createdAt,value
2023-02-16T00:01:56.022Z,102301.22
2023-02-16T00:04:31.699Z,102300.47
2023-02-16T00:06:58.437Z,102304.16
2023-02-16T00:09:25.278Z,102295.31
2023-02-16T00:12:12.000Z,102294.50
2023-02-16T00:14:39.969Z,102297.25
2023-02-16T00:17:07.143Z,102297.31
2023-02-16T00:19:40.770Z,102302.69
2023-02-16T00:22:09.184Z,102301.88
2023-02-16T00:24:35.830Z,102301.94
2023-02-16T00:27:02.468Z,102293.09
2023-02-16T00:29:36.569Z,102293.09
2023-02-16T00:32:05.868Z,102293.09
2023-02-16T00:34:38.034Z,102293.22
2023-02-16T00:37:10.095Z,102286.25
2023-02-16T00:39:37.660Z,102301.53
2023-02-16T00:42:07.163Z,102297.09
2023-02-16T00:44:41.177Z,102286.50
2023-02-16T00:47:17.129Z,102298.19
2023-02-16T00:49:43.868Z,102307.22
2023-02-16T00:52:34.294Z,102303.78
2023-02-16T00:55:04.385Z,102305.72
2023-02-16T00:57:36.689Z,102301.50
2023-02-16T01:00:28.988Z,102297.34
2023-02-16T01:02:58.690Z,102286.81
2023-02-16T01:05:25.736Z,102293.16
2023-02-16T01:08:11.119Z,102293.16
2023-02-16T01:11:07.550Z,102295.91
2023-02-16T01:13:40.121Z,102298.59
2023-02-16T01:16:15.164Z,102293.22
2023-02-16T01:18:41.792Z,102293.28
2023-02-16T01:21:08.321Z,102286.16
2023-02-16T01:23:34.881Z,102284.41
2023-02-16T01:26:01.494Z,102285.34
2023-02-16T01:28:28.338Z,102288.03
2023-02-16T01:30:55.095Z,102289.91
2023-02-16T01:33:22.527Z,102287.28
2023-02-16T01:35:50.500Z,102276.56
2023-02-16T01:38:23.681Z,102281.06
2023-02-16T01:41:09.564Z,102283.72
2023-02-16T01:43:48.294Z,102273.06
2023-02-16T01:46:25.752Z,102275.81
2023-02-16T01:48:52.364Z,102266.97
2023-02-16T01:51:28.444Z,102277.69
2023-02-16T01:54:06.082Z,102266.09
2023-02-16T01:56:36.278Z,102256.31
2023-02-16T01:59:33.345Z,102246.53
2023-02-16T02:02:03.629Z,102248.53
2023-02-16T02:04:58.418Z,102246.19
2023-02-16T02:07:54.998Z,102237.47
2023-02-16T02:10:40.066Z,102234.03
2023-02-16T02:13:29.318Z,102233.47
2023-02-16T02:15:59.406Z,102246.84
2023-02-16T02:18:26.193Z,102239.81
2023-02-16T02:21:34.346Z,102242.50
2023-02-16T02:24:30.425Z,102243.44
2023-02-16T02:27:35.768Z,102239.00
2023-02-16T02:30:26.314Z,102235.47
2023-02-16T02:33:08.858Z,102230.09
2023-02-16T02:35:44.113Z,102233.66
2023-02-16T02:38:16.573Z,102226.56
2023-02-16T02:41:04.960Z,102228.44
2023-02-16T02:43:43.960Z,102232.97
2023-02-16T02:46:19.228Z,102226.75
2023-02-16T02:48:46.777Z,102233.91
2023-02-16T02:51:30.001Z,102223.19
2023-02-16T02:54:58.677Z,102216.09
2023-02-16T02:58:01.910Z,102211.75
2023-02-16T03:00:47.924Z,102204.66
2023-02-16T03:03:24.498Z,102189.53
2023-02-16T03:06:01.099Z,102192.22
2023-02-16T03:08:31.634Z,102186.94
2023-02-16T03:11:23.384Z,102186.88
2023-02-16T03:13:58.599Z,102183.31
2023-02-16T03:16:41.897Z,102187.81
2023-02-16T03:19:31.255Z,102191.47
2023-02-16T03:22:18.294Z,102195.94
2023-02-16T03:25:04.185Z,102195.13
2023-02-16T03:27:52.378Z,102195.09
2023-02-16T03:30:21.086Z,102198.56
2023-02-16T03:32:48.156Z,102194.03
2023-02-16T03:35:15.313Z,102198.44
2023-02-16T03:37:43.675Z,102186.81
2023-02-16T03:40:29.465Z,102199.28
2023-02-16T03:42:58.254Z,102192.16
2023-02-16T03:45:25.823Z,102194.84
2023-02-16T03:47:52.959Z,102183.25
2023-02-16T03:50:19.720Z,102181.50
2023-02-16T03:52:46.439Z,102180.66
2023-02-16T03:55:13.584Z,102186.88
2023-02-16T03:57:40.226Z,102189.53
2023-02-16T04:00:07.895Z,102188.66
2023-02-16T04:02:39.647Z,102184.25
2023-02-16T04:05:06.648Z,102190.59
2023-02-16T04:07:33.326Z,102170.25
2023-02-16T04:09:59.863Z,102172.13
2023-02-16T04:12:38.471Z,102180.13
2023-02-16T04:15:07.567Z,102173.03
2023-02-16T04:17:34.267Z,102182.81
2023-02-16T04:20:00.950Z,102188.09
2023-02-16T04:22:27.553Z,102193.41
2023-02-16T04:24:54.116Z,102194.22
2023-02-16T04:27:20.753Z,102206.66
2023-02-16T04:29:47.389Z,102205.72
2023-02-16T04:32:14.294Z,102200.31
2023-02-16T04:34:40.969Z,102194.97
2023-02-16T04:37:07.607Z,102197.63
2023-02-16T04:39:34.319Z,102197.56
2023-02-16T04:42:00.849Z,102193.97
2023-02-16T04:44:27.407Z,102194.81
2023-02-16T04:46:54.143Z,102195.63
2023-02-16T04:49:20.997Z,102193.75
2023-02-16T04:51:47.826Z,102186.66
2023-02-16T04:54:14.668Z,102203.59
2023-02-16T04:56:44.893Z,102194.69
2023-02-16T04:59:11.525Z,102202.72
2023-02-16T05:01:38.225Z,102213.34
2023-02-16T05:04:04.968Z,102208.81
2023-02-16T05:06:31.536Z,102206.88
2023-02-16T05:08:58.070Z,102196.19
2023-02-16T05:11:43.241Z,102178.31
2023-02-16T05:14:37.537Z,102182.78
2023-02-16T05:17:04.471Z,102191.81
2023-02-16T05:19:31.104Z,102197.13
2023-02-16T05:21:57.849Z,102196.25
2023-02-16T05:24:25.085Z,102188.09
2023-02-16T05:26:52.756Z,102183.47
2023-02-16T05:29:19.595Z,102189.56
2023-02-16T05:31:46.347Z,102176.13
2023-02-16T05:34:12.982Z,102189.38
2023-02-16T05:36:39.712Z,102176.81
2023-02-16T05:39:06.349Z,102181.16
2023-02-16T05:41:32.991Z,102189.06
2023-02-16T05:44:01.773Z,102175.63
2023-02-16T05:46:32.065Z,102179.09
2023-02-16T05:48:59.759Z,102179.91
2023-02-16T05:51:26.908Z,102186.06
2023-02-16T05:53:53.748Z,102185.00
2023-02-16T05:56:20.521Z,102179.50
2023-02-16T05:58:47.535Z,102187.47
2023-02-16T06:01:14.989Z,102197.31
2023-02-16T06:03:41.785Z,102197.19
2023-02-16T06:06:09.696Z,102170.28
2023-02-16T06:08:37.050Z,102170.16
2023-02-16T06:11:07.100Z,102163.81
2023-02-16T06:13:34.342Z,102162.81
2023-02-16T06:16:00.908Z,102161.00
2023-02-16T06:18:27.492Z,102165.34
2023-02-16T06:20:56.786Z,102176.00
2023-02-16T06:23:23.428Z,102174.06
2023-02-16T06:25:51.880Z,102180.22
2023-02-16T06:28:18.437Z,102174.75
2023-02-16T06:30:44.976Z,102151.50
2023-02-16T06:33:11.709Z,102175.47
2023-02-16T06:35:38.447Z,102182.50
2023-02-16T06:38:05.087Z,102169.91
2023-02-16T06:40:31.632Z,102171.66
2023-02-16T06:42:58.172Z,102169.78
2023-02-16T06:45:24.799Z,102173.34
2023-02-16T06:47:51.320Z,102165.22
2023-02-16T06:50:18.164Z,102173.19
2023-02-16T06:52:44.800Z,102181.09
2023-02-16T06:55:11.555Z,102188.19
2023-02-16T06:57:38.279Z,102184.50
2023-02-16T07:00:07.575Z,102186.19
2023-02-16T07:02:35.652Z,102197.72
2023-02-16T07:05:03.287Z,102200.25
2023-02-16T07:07:30.973Z,102191.28
2023-02-16T07:09:58.120Z,102181.34
2023-02-16T07:12:25.053Z,102187.44
2023-02-16T07:14:51.698Z,102191.81
2023-02-16T07:17:18.227Z,102186.31
2023-02-16T07:19:44.772Z,102191.59
2023-02-16T07:22:11.401Z,102203.06
2023-02-16T07:24:37.935Z,102213.72
2023-02-16T07:27:05.305Z,102211.75
2023-02-16T07:29:31.924Z,102212.56
2023-02-16T07:31:58.570Z,102208.81
2023-02-16T07:34:25.501Z,102200.75
2023-02-16T07:36:52.037Z,102197.16
2023-02-16T07:39:18.703Z,102206.09
2023-02-16T07:41:45.620Z,102205.13
2023-02-16T07:44:17.678Z,102198.75
2023-02-16T07:46:44.420Z,102195.88
2023-02-16T07:49:11.051Z,102194.84
2023-02-16T07:51:37.994Z,102195.66
2023-02-16T07:54:04.632Z,102203.63
2023-02-16T07:56:35.015Z,102201.59
2023-02-16T07:59:02.924Z,102205.03
2023-02-16T08:01:30.888Z,102204.81
2023-02-16T08:03:57.850Z,102196.59
2023-02-16T08:06:24.570Z,102198.13
2023-02-16T08:08:51.241Z,102212.28
2023-02-16T08:11:23.899Z,102212.06
2023-02-16T08:13:51.253Z,102210.03
2023-02-16T08:16:20.582Z,102208.91
2023-02-16T08:18:47.387Z,102215.84
2023-02-16T08:21:16.481Z,102221.00
2023-02-16T08:23:47.863Z,102222.53
2023-02-16T08:26:17.642Z,102222.38
2023-02-16T08:28:50.008Z,102223.13
2023-02-16T08:31:21.021Z,102215.72
2023-02-16T08:33:48.309Z,102220.88
2023-02-16T08:36:21.325Z,102218.91
2023-02-16T08:38:50.901Z,102225.00
2023-02-16T08:41:22.250Z,102230.22
2023-02-16T08:43:49.698Z,102234.50
2023-02-16T08:46:16.596Z,102219.16
2023-02-16T08:48:45.370Z,102228.75
2023-02-16T08:51:20.354Z,102238.38
2023-02-16T08:53:47.009Z,102238.16
2023-02-16T08:56:14.866Z,102246.00
2023-02-16T08:58:41.510Z,102242.19
2023-02-16T09:01:09.604Z,102243.72
2023-02-16T09:03:42.844Z,102247.97
2023-02-16T09:06:12.274Z,102246.09
2023-02-16T09:08:40.218Z,102245.13
2023-02-16T09:11:15.870Z,102244.19
2023-02-16T09:13:43.455Z,102245.78
2023-02-16T09:16:14.236Z,102250.13
2023-02-16T09:18:42.120Z,102262.50
2023-02-16T09:21:19.819Z,102257.84
2023-02-16T09:23:48.605Z,102256.72
2023-02-16T09:26:17.188Z,102256.41
2023-02-16T09:28:45.677Z,102260.53
2023-02-16T09:31:20.521Z,102262.88
2023-02-16T09:33:47.336Z,102258.94
2023-02-16T09:36:14.181Z,102261.28
2023-02-16T09:38:41.220Z,102259.22
2023-02-16T09:41:21.793Z,102259.84
2023-02-16T09:43:54.271Z,102263.97
2023-02-16T09:46:22.925Z,102261.94
2023-02-16T09:48:51.615Z,102260.81
2023-02-16T09:51:37.616Z,102265.88
2023-02-16T09:54:26.785Z,102254.00
2023-02-16T09:57:01.179Z,102260.09
2023-02-16T09:59:38.196Z,102253.69
2023-02-16T10:02:26.565Z,102256.19
2023-02-16T10:05:08.581Z,102251.44
2023-02-16T10:08:02.812Z,102246.75
2023-02-16T10:10:46.954Z,102243.09
2023-02-16T10:13:22.704Z,102229.56
2023-02-16T10:15:53.594Z,102235.72
2023-02-16T10:18:31.645Z,102242.06
2023-02-16T10:21:02.363Z,102245.63
2023-02-16T10:23:51.846Z,102242.94
2023-02-16T10:26:24.649Z,102244.66
2023-02-16T10:29:00.188Z,102243.78
2023-02-16T10:31:49.531Z,102238.41
2023-02-16T10:34:31.080Z,102251.78
2023-02-16T10:37:14.867Z,102247.34
2023-02-16T10:40:10.693Z,102249.00
2023-02-16T10:42:44.497Z,102250.75
2023-02-16T10:45:31.930Z,102247.19
2023-02-16T10:47:58.967Z,102258.75
2023-02-16T10:50:31.626Z,102246.94
2023-02-16T10:53:01.732Z,102248.50
2023-02-16T10:55:28.497Z,102245.63
2023-02-16T10:58:01.804Z,102249.91
2023-02-16T11:01:11.363Z,102249.63
2023-02-16T11:03:52.023Z,102245.72
2023-02-16T11:06:25.602Z,102254.59
2023-02-16T11:09:01.200Z,102253.63
2023-02-16T11:11:29.422Z,102257.13
2023-02-16T11:14:06.376Z,102258.06
2023-02-16T11:16:34.580Z,102261.72
2023-02-16T11:19:17.799Z,102257.19
2023-02-16T11:21:44.467Z,102252.75
2023-02-16T11:24:23.914Z,102246.59
2023-02-16T11:27:21.409Z,102257.53
2023-02-16T11:29:48.992Z,102255.72
2023-02-16T11:32:18.601Z,102254.75
2023-02-16T11:34:49.435Z,102257.53
2023-02-16T11:37:27.948Z,102253.13
2023-02-16T11:40:02.573Z,102249.63
2023-02-16T11:42:43.978Z,102247.81
2023-02-16T11:45:22.877Z,102235.47
2023-02-16T11:48:13.878Z,102238.25
2023-02-16T11:51:05.180Z,102227.72
2023-02-16T11:53:38.380Z,102232.34
2023-02-16T11:56:13.417Z,102226.09
2023-02-16T11:58:40.671Z,102223.31
2023-02-16T12:01:10.346Z,102231.38
2023-02-16T12:04:14.410Z,102222.53
2023-02-16T12:07:17.373Z,102212.63
2023-02-16T12:10:02.767Z,102202.53
2023-02-16T12:12:32.368Z,102201.50
2023-02-16T12:15:22.545Z,102201.41
2023-02-16T12:18:14.596Z,102195.84
2023-02-16T12:21:03.418Z,102195.66
2023-02-16T12:23:59.151Z,102194.63
2023-02-16T12:26:52.313Z,102191.75
2023-02-16T12:29:27.650Z,102189.66
2023-02-16T12:31:54.208Z,102182.25
2023-02-16T12:34:35.874Z,102169.38
2023-02-16T12:37:25.652Z,102160.34
2023-02-16T12:40:10.986Z,102162.00
2023-02-16T12:43:08.691Z,102158.19
2023-02-16T12:45:39.040Z,102158.69
2023-02-16T12:48:28.686Z,102158.44
2023-02-16T12:50:57.268Z,102146.22
2023-02-16T12:53:49.399Z,102139.50
2023-02-16T12:56:28.836Z,102132.50
2023-02-16T12:59:06.744Z,102122.97
2023-02-16T13:01:36.551Z,102119.53
2023-02-16T13:04:18.588Z,102123.34
2023-02-16T13:07:29.314Z,102117.84
2023-02-16T13:10:04.762Z,102108.38
2023-02-16T13:12:49.618Z,102111.63
2023-02-16T13:15:21.183Z,102099.53
2023-02-16T13:17:57.069Z,102095.03
2023-02-16T13:20:25.324Z,102096.53
2023-02-16T13:23:18.467Z,102079.84
2023-02-16T13:26:13.057Z,102082.72
2023-02-16T13:28:55.682Z,102085.31
2023-02-16T13:31:35.034Z,102087.25
2023-02-16T13:34:18.527Z,102085.97
2023-02-16T13:36:53.568Z,102083.03
2023-02-16T13:39:35.154Z,102079.34
2023-02-16T13:42:29.648Z,102066.47
2023-02-16T13:44:59.667Z,102070.59
2023-02-16T13:47:39.800Z,102061.91
2023-02-16T13:50:31.685Z,102056.69
2023-02-16T13:53:17.425Z,102053.16
2023-02-16T13:55:43.937Z,102052.25
2023-02-16T13:58:32.408Z,102047.03
2023-02-16T14:00:59.243Z,102042.00
2023-02-16T14:03:38.274Z,102041.91
2023-02-16T14:06:34.114Z,102035.59
2023-02-16T14:09:12.714Z,102033.78
2023-02-16T14:11:54.697Z,102020.34
2023-02-16T14:14:29.124Z,102018.59
2023-02-16T14:16:55.867Z,102012.56
2023-02-16T14:19:25.882Z,102007.47
2023-02-16T14:21:53.460Z,102007.72
2023-02-16T14:24:25.814Z,102005.75
2023-02-16T14:26:54.495Z,102002.19
2023-02-16T14:29:28.509Z,102002.41
2023-02-16T14:32:01.628Z,102006.09
2023-02-16T14:34:36.624Z,102000.78
2023-02-16T14:37:17.118Z,101998.09
2023-02-16T14:40:06.562Z,101998.09
2023-02-16T14:42:35.046Z,102001.66
2023-02-16T14:45:08.431Z,102000.56
2023-02-16T14:47:40.805Z,101995.03
2023-02-16T14:50:16.047Z,101989.63
2023-02-16T14:52:57.524Z,101991.34
2023-02-16T14:55:33.177Z,101981.72
2023-02-16T14:58:22.148Z,101981.72
2023-02-16T15:01:04.422Z,101977.16
2023-02-16T15:03:48.126Z,101982.69
2023-02-16T15:06:29.042Z,101982.94
2023-02-16T15:08:59.669Z,101982.19
2023-02-16T15:12:01.448Z,101979.47
2023-02-16T15:14:29.913Z,101967.66
2023-02-16T15:16:57.984Z,101975.03
2023-02-16T15:19:31.073Z,101972.56
2023-02-16T15:22:13.375Z,101973.53
2023-02-16T15:24:41.339Z,101975.38
2023-02-16T15:27:21.415Z,101976.25
2023-02-16T15:30:03.907Z,101968.00
2023-02-16T15:32:32.625Z,101961.84
2023-02-16T15:34:59.632Z,101963.03
2023-02-16T15:37:32.956Z,101978.50
2023-02-16T15:40:26.778Z,101966.88
2023-02-16T15:42:55.929Z,101964.19
2023-02-16T15:45:35.434Z,101961.69
2023-02-16T15:48:32.482Z,101957.25
2023-02-16T15:51:07.408Z,101956.28
2023-02-16T15:53:45.101Z,101962.47
2023-02-16T15:56:32.833Z,101956.19
2023-02-16T15:59:15.758Z,101960.84
2023-02-16T16:01:42.844Z,101957.38
2023-02-16T16:04:22.153Z,101961.81
2023-02-16T16:06:51.129Z,101955.53
2023-02-16T16:09:25.688Z,101954.69
2023-02-16T16:11:55.861Z,101956.63
2023-02-16T16:14:24.134Z,101952.31
2023-02-16T16:16:51.602Z,101955.13
2023-02-16T16:19:22.429Z,101950.81
2023-02-16T16:21:55.607Z,101953.63
2023-02-16T16:24:38.234Z,101946.59
2023-02-16T16:27:14.491Z,101949.41
2023-02-16T16:29:47.411Z,101942.28
2023-02-16T16:32:24.931Z,101946.06
2023-02-16T16:34:53.759Z,101947.16
2023-02-16T16:37:37.410Z,101947.38
2023-02-16T16:40:19.904Z,101939.59
2023-02-16T16:43:04.949Z,101951.63
2023-02-16T16:45:35.832Z,101947.31
2023-02-16T16:48:09.610Z,101953.81
2023-02-16T16:50:39.774Z,101952.94
2023-02-16T16:53:25.309Z,101955.88
2023-02-16T16:55:52.050Z,101962.16
2023-02-16T16:58:18.680Z,101967.78
2023-02-16T17:00:45.524Z,101970.72
2023-02-16T17:03:14.523Z,101968.97
2023-02-16T17:05:41.662Z,101969.09
2023-02-16T17:08:08.708Z,101979.06
2023-02-16T17:10:37.598Z,101978.28
2023-02-16T17:13:04.846Z,101979.50
2023-02-16T17:15:33.846Z,101975.50
2023-02-16T17:18:00.898Z,101975.91
2023-02-16T17:20:27.524Z,101973.41
2023-02-16T17:22:54.272Z,101973.84
2023-02-16T17:25:20.896Z,101973.19
2023-02-16T17:27:47.548Z,101974.28
2023-02-16T17:30:14.945Z,101974.50
2023-02-16T17:32:41.522Z,101960.31
2023-02-16T17:35:08.333Z,101959.47
2023-02-16T17:37:35.590Z,101961.50
2023-02-16T17:40:04.819Z,101965.41
2023-02-16T17:42:31.651Z,101962.81
2023-02-16T17:44:58.287Z,101962.91
2023-02-16T17:47:24.923Z,101949.50
2023-02-16T17:49:51.562Z,101953.28
2023-02-16T17:52:18.308Z,101951.75
2023-02-16T17:54:44.933Z,101953.78
2023-02-16T17:57:11.881Z,101957.34
2023-02-16T17:59:41.294Z,101954.66
2023-02-16T18:02:10.989Z,101952.94
2023-02-16T18:04:41.057Z,101951.31
2023-02-16T18:07:13.394Z,101947.84
2023-02-16T18:09:40.526Z,101938.88
2023-02-16T18:12:07.566Z,101944.38
2023-02-16T18:14:36.059Z,101941.03
2023-02-16T18:17:04.015Z,101944.69
2023-02-16T18:19:32.002Z,101947.50
2023-02-16T18:21:59.033Z,101946.63
2023-02-16T18:24:25.767Z,101944.03
2023-02-16T18:26:52.418Z,101945.00
2023-02-16T18:29:19.248Z,101946.84
2023-02-16T18:31:46.048Z,101944.16
2023-02-16T18:34:12.933Z,101943.19
2023-02-16T18:36:39.892Z,101935.06
2023-02-16T18:39:07.956Z,101933.34
2023-02-16T18:41:34.891Z,101934.41
2023-02-16T18:44:01.740Z,101929.13
2023-02-16T18:46:28.651Z,101932.91
2023-02-16T18:48:55.214Z,101929.34
2023-02-16T18:51:25.026Z,101930.31
2023-02-16T18:53:51.866Z,101926.81
2023-02-16T18:56:18.604Z,101921.50
2023-02-16T18:58:45.244Z,101924.97
2023-02-16T19:01:31.198Z,101913.41
2023-02-16T19:03:59.481Z,101924.91
2023-02-16T19:06:28.601Z,101919.50
2023-02-16T19:08:56.369Z,101921.34
2023-02-16T19:11:22.901Z,101926.63
2023-02-16T19:13:49.643Z,101928.47
2023-02-16T19:16:17.135Z,101920.38
2023-02-16T19:18:43.728Z,101924.03
2023-02-16T19:21:13.145Z,101921.34
2023-02-16T19:23:40.792Z,101919.50
2023-02-16T19:26:09.586Z,101924.03
2023-02-16T19:28:37.040Z,101932.03
2023-02-16T19:31:06.566Z,101925.78
2023-02-16T19:33:34.403Z,101924.97
2023-02-16T19:36:01.763Z,101935.78
2023-02-16T19:38:29.104Z,101941.19
2023-02-16T19:40:55.798Z,101940.31
2023-02-16T19:43:22.475Z,101940.25
2023-02-16T19:45:50.137Z,101944.69
2023-02-16T19:48:17.283Z,101939.28
2023-02-16T19:50:44.328Z,101933.88
2023-02-16T19:53:10.967Z,101937.44
2023-02-16T19:55:42.936Z,101939.16
2023-02-16T19:58:09.562Z,101929.44
2023-02-16T20:00:38.131Z,101925.94
2023-02-16T20:03:05.437Z,101932.22
2023-02-16T20:05:33.056Z,101930.47
2023-02-16T20:08:00.008Z,101926.91
2023-02-16T20:10:27.046Z,101928.84
2023-02-16T20:12:53.891Z,101922.69
2023-02-16T20:15:20.427Z,101929.19
2023-02-16T20:17:47.264Z,101925.59
2023-02-16T20:20:13.902Z,101924.84
2023-02-16T20:22:40.538Z,101925.81
2023-02-16T20:25:07.380Z,101924.09
2023-02-16T20:27:34.324Z,101917.81
2023-02-16T20:30:06.653Z,101922.56
2023-02-16T20:32:33.945Z,101922.56
2023-02-16T20:35:07.241Z,101926.13
2023-02-16T20:37:34.389Z,101928.94
2023-02-16T20:40:01.127Z,101922.78
2023-02-16T20:42:27.765Z,101916.63
2023-02-16T20:44:54.397Z,101919.31
2023-02-16T20:47:21.037Z,101912.06
2023-02-16T20:49:47.734Z,101895.97
2023-02-16T20:52:14.540Z,101901.38
2023-02-16T20:54:41.342Z,101899.66
2023-02-16T20:57:15.504Z,101888.09
2023-02-16T20:59:48.036Z,101892.63
2023-02-16T21:02:15.012Z,101886.25
2023-02-16T21:04:41.681Z,101894.25
2023-02-16T21:07:08.974Z,101899.84
2023-02-16T21:09:35.605Z,101897.16
2023-02-16T21:12:02.142Z,101904.41
2023-02-16T21:14:28.772Z,101897.25
2023-02-16T21:16:55.403Z,101897.25
2023-02-16T21:19:23.521Z,101900.84
2023-02-16T21:21:51.277Z,101893.50
2023-02-16T21:24:17.879Z,101898.78
2023-02-16T21:26:48.412Z,101901.28
2023-02-16T21:29:15.151Z,101904.75
2023-02-16T21:31:41.867Z,101903.66
2023-02-16T21:34:08.914Z,101907.03
2023-02-16T21:36:35.791Z,101910.47
2023-02-16T21:39:03.037Z,101904.97
2023-02-16T21:41:29.975Z,101896.88
2023-02-16T21:44:02.075Z,101900.31
2023-02-16T21:46:31.968Z,101907.34
2023-02-16T21:48:59.248Z,101905.41
2023-02-16T21:51:31.996Z,101897.19
2023-02-16T21:53:59.642Z,101886.22
2023-02-16T21:56:43.385Z,101892.47
2023-02-16T21:59:16.372Z,101895.19
2023-02-16T22:01:53.242Z,101894.09
2023-02-16T22:04:22.105Z,101881.34
2023-02-16T22:06:50.720Z,101878.44
2023-02-16T22:09:20.943Z,101880.16
2023-02-16T22:11:47.978Z,101874.78
2023-02-16T22:14:15.535Z,101867.41
2023-02-16T22:16:44.869Z,101867.53
2023-02-16T22:19:13.313Z,101862.13
2023-02-16T22:21:42.413Z,101862.66
2023-02-16T22:24:12.104Z,101857.25
2023-02-16T22:26:38.851Z,101856.19
2023-02-16T22:29:07.579Z,101852.72
2023-02-16T22:31:34.556Z,101849.03
2023-02-16T22:34:03.686Z,101857.16
2023-02-16T22:36:30.526Z,101857.16
2023-02-16T22:38:57.467Z,101866.34
2023-02-16T22:41:24.648Z,101854.66
2023-02-16T22:43:56.071Z,101858.44
2023-02-16T22:46:24.165Z,101862.22
2023-02-16T22:48:52.046Z,101864.94
2023-02-16T22:51:20.788Z,101865.81
2023-02-16T22:53:47.949Z,101871.09
2023-02-16T22:56:18.260Z,101871.97
2023-02-16T22:58:45.212Z,101872.59
2023-02-16T23:01:15.103Z,101872.59
2023-02-16T23:03:42.643Z,101864.41
2023-02-16T23:06:18.322Z,101877.78
2023-02-16T23:08:46.601Z,101875.84
2023-02-16T23:11:13.541Z,101873.03
2023-02-16T23:13:40.280Z,101876.50
2023-02-16T23:16:15.362Z,101883.84
2023-02-16T23:18:42.874Z,101884.59
2023-02-16T23:21:21.902Z,101886.44
2023-02-16T23:23:50.176Z,101893.56
2023-02-16T23:26:18.370Z,101892.72
2023-02-16T23:28:45.292Z,101882.88
2023-02-16T23:31:13.473Z,101876.50
2023-02-16T23:33:40.715Z,101871.97
2023-02-16T23:36:07.799Z,101860.41
2023-02-16T23:38:35.007Z,101871.19
2023-02-16T23:41:07.720Z,101866.78
2023-02-16T23:43:35.041Z,101869.25
2023-02-16T23:46:02.908Z,101867.53
2023-02-16T23:48:30.670Z,101864.81
2023-02-16T23:50:57.915Z,101857.47
2023-02-16T23:53:27.015Z,101862.78
2023-02-16T23:56:07.141Z,101861.69
2023-02-16T23:58:36.975Z,101856.09
